Details From CZST - STEWART
To KRNT - Renton Muni
Flight Number -
Tags generated
Created
Modified
Stats Distance 614 nm / 1,138 km
Max Altitude 35,000 ft / 10,668 m
Waypoints 9
Social Downloads 2
Likes 0
Share VATSIM

Download

Looking for another format? Having issues loading an existing format? Contact us
Advertisement - Login to hide

Notes

Basic altitude profile: - Ascent Rate: 2500ft/min - Ascent Speed: 250kts - Cruise Altitude: 35000ft - Cruise Speed: 420kts - Descent Rate: 1500ft/min - Descent Speed: 250kts Options: - Use NATs: yes - Use PACOTS: yes - Use low airways: yes - Use high airways: yes

Route

CZST XT B25 YJQ V347 YZT J502 YYJ KRNT

ID Type Via Altitude Latitude Longitude Leg Dist Tot Dist Heading (true) Name
O CZST APT - 0 ft / 0 m 55.93542˚ -129.98403˚ - 0 nm - STEWART
XT NDB - 35,000 ft / 10,668 m 54.37400˚ -128.58311˚ 105 nm 105 nm 152° / 153° TERRACE NDB
ZKI NDB B25 (AWY-LO) 18,000 ft / 5,486 m 54.05411˚ -128.67022˚ 19 nm 124 nm 189° / 189° KITIMAT NDB
YJQ NDB B25 (AWY-LO) 17,000 ft / 5,182 m 52.18522˚ -128.11353˚ 114 nm 238 nm 170° / 170° BELLA BELLA NDB
YZT VOR V347 (AWY-LO) 17,000 ft / 5,182 m 50.68425˚ -127.36519˚ 94 nm 333 nm 162° / 163° PORT HARDY VOR-DME
ROYST FIX J502 (AWY-HI) 35,000 ft / 10,668 m 49.59083˚ -125.12722˚ 108 nm 441 nm 126° / 128° -
ARRUE FIX J502 (AWY-HI) 25,300 ft / 7,711 m 49.07283˚ -124.12986˚ 49 nm 491 nm 128° / 129° -
YYJ VOR J502 (AWY-HI) 19,200 ft / 5,852 m 48.72703˚ -123.48436˚ 32 nm 524 nm 129° / 129° VICTORIA VOR-DME
O KRNT APT - 0 ft / 0 m 47.49313˚ -122.21574˚ 89 nm 614 nm 145° / 146° Renton Muni

Altitude Profile

Advertisement - Login to hide

Weather


0- 5 10 15 20 25 30 35+ Temperature / ° C

Clouds and Precipitation
Forecast for 2017-12-17 18:00 UTC. Updated 41 minutes ago

Ground ~20,000 ft ~40,000 ft Winds

CZST

Details ICAO CZST
Name STEWART
Region Canada
Timezone America/Vancouver (UTC-8.0)
Stats Elevation 24 ft / 7 m (AMSL)
Location 55.935417° -129.984029°
Runways 1
Magnetic Variation 18.685° E

METAR

CZST 171800Z 00000KT 8SM -RA SCT015 OVC025 00/00 A2986 RMK SC4SC4 SLP114

Decode

TAF

Not found

Departure Runways

ID Width Length Bearing (true) Bearing (mag) Surface Threshold Offset Overrun Length
18 75 ft / 23 m 3,873 ft / 1,180 m 194.43° 175.75° Asphalt 0 ft / 0 m 0 ft / 0 m
36 75 ft / 23 m 3,873 ft / 1,180 m 14.42° 355.74° Asphalt 0 ft / 0 m 0 ft / 0 m

KRNT

Details ICAO KRNT (RNT)
Name Renton Muni
Region United States
Timezone America/Los_Angeles (UTC-8.0)
Stats Elevation 32 ft / 10 m (AMSL)
Location 47.493133° -122.215743°
Runways 1
Magnetic Variation 15.676° E

METAR

KRNT 171753Z 16010KT 10SM OVC021 09/06 A3011 RMK AO2 SLP201 T00890061 10089 20067 55006

Decode

TAF

Not found

Destination Runways

ID Width Length Bearing (true) Bearing (mag) Surface Threshold Offset Overrun Length
16 200 ft / 61 m 5,384 ft / 1,641 m 174.16° 158.48° Asphalt 299 ft / 91 m 0 ft / 0 m
34 200 ft / 61 m 5,384 ft / 1,641 m 354.17° 338.49° Asphalt 341 ft / 104 m 210 ft / 64 m